Time;durP1;ratioP1;P1;durP2;ratioP2;P2;SDS_P1;SDS_P2;PMS_P1;PMS_P2;Temp;Humidity;BMP_temperature;BMP_pressure;BME280_temperature;BME280_humidity;BME280_pressure;Samples;Min_cycle;Max_cycle;Signal;HPM_P1;HPM_P2
2021/03/25 06:49:04;;;;;;;;;;;;;;;;;;;;;
2021/03/25 06:56:06;;;;;;;;;;;;;;;;;;;;;
2021/03/25 08:00:13;;;;;;;45.73;26.03;;;11.60;99.90;;;;;;4934763;28;20703;-91
2021/03/25 08:02:40;;;;;;;37.97;24.33;;;11.60;99.90;;;;;;4917059;29;20180;-90
2021/03/25 08:05:30;;;;;;;44.13;24.27;;;11.80;99.90;;;;;;4927933;29;20271;-92
2021/03/25 08:08:06;;;;;;;46.20;25.77;;;11.70;99.90;;;;;;4909492;29;20169;-91
2021/03/25 08:10:40;;;;;;;39.03;24.83;;;11.80;99.90;;;;;;4919624;29;20665;-91
2021/03/25 08:13:18;;;;;;;41.50;25.57;;;11.90;99.90;;;;;;4919816;29;20172;-94
2021/03/25 08:15:47;;;;;;;42.77;25.00;;;11.70;99.90;;;;;;4919807;29;20269;-91
2021/03/25 08:18:20;;;;;;;34.27;23.00;;;11.70;99.90;;;;;;4920889;29;20184;-91
2021/03/25 08:20:53;;;;;;;40.77;23.83;;;11.80;99.90;;;;;;4919784;29;20221;-90
2021/03/25 08:23:40;;;;;;;32.90;21.07;;;11.80;99.90;;;;;;4920068;29;20235;-87
2021/03/25 08:26:23;;;;;;;30.37;19.10;;;12.00;99.90;;;;;;4920814;29;20187;-92
2021/03/25 08:29:13;;;;;;;29.47;19.13;;;11.90;99.90;;;;;;4931295;29;20191;-92
2021/03/25 08:32:01;;;;;;;30.30;18.17;;;11.90;99.90;;;;;;4922107;29;20212;-93
2021/03/25 08:35:04;;;;;;;34.23;19.47;;;11.90;99.90;;;;;;4926130;29;20168;-89
2021/03/25 08:37:59;;;;;;;29.63;18.77;;;11.70;99.90;;;;;;4935700;29;20191;-90
2021/03/25 08:40:34;;;;;;;32.00;19.63;;;11.70;99.90;;;;;;4931068;29;20236;-91
2021/03/25 08:43:01;;;;;;;28.63;19.67;;;11.90;99.90;;;;;;4927590;29;20211;-91
2021/03/25 08:45:30;;;;;;;27.20;19.80;;;12.00;99.90;;;;;;4928224;29;20237;-91
2021/03/25 08:48:08;;;;;;;29.80;19.43;;;12.10;99.90;;;;;;4924638;29;20633;-90
2021/03/25 08:50:44;;;;;;;33.47;20.10;;;12.10;99.90;;;;;;4923002;29;20179;-92
2021/03/25 08:53:25;;;;;;;32.43;19.93;;;12.20;99.90;;;;;;4925892;29;20202;-90
2021/03/25 08:55:55;;;;;;;30.87;19.50;;;12.30;99.90;;;;;;4903868;29;20169;-91
2021/03/25 09:08:30;;;;;;;30.03;18.63;;;12.80;99.90;;;;;;4987932;23;20273;-90
2021/03/25 09:11:04;;;;;;;30.40;18.63;;;12.60;99.90;;;;;;4938294;29;20186;-90
2021/03/25 09:13:33;;;;;;;28.57;17.47;;;12.70;99.90;;;;;;4941951;29;20183;-90
2021/03/25 09:16:19;;;;;;;28.47;17.63;;;12.70;99.90;;;;;;4940189;28;20180;-91
2021/03/25 09:18:51;;;;;;;29.27;17.67;;;12.70;99.90;;;;;;4938870;29;20190;-91
2021/03/25 09:21:21;;;;;;;29.57;19.37;;;12.80;99.90;;;;;;4938488;29;20198;-91
2021/03/25 09:24:00;;;;;;;29.67;19.30;;;13.00;99.90;;;;;;4938208;29;20203;-91
2021/03/25 09:26:25;;;;;;;28.57;19.57;;;12.90;99.90;;;;;;4937799;29;20275;-91
2021/03/25 09:29:04;;;;;;;27.87;18.97;;;12.60;99.90;;;;;;4936242;29;20267;-91
2021/03/25 09:31:48;;;;;;;29.57;18.60;;;12.70;99.90;;;;;;4932173;29;20191;-91
2021/03/25 09:34:14;;;;;;;27.77;18.13;;;12.40;99.90;;;;;;4941484;28;20690;-91
2021/03/25 09:36:52;;;;;;;23.60;16.93;;;12.30;99.90;;;;;;4953895;29;20299;-92
2021/03/25 09:39:28;;;;;;;19.73;14.87;;;12.30;99.90;;;;;;4941648;29;20198;-91
2021/03/25 09:42:00;;;;;;;22.37;14.27;;;12.20;99.90;;;;;;4941356;29;20174;-91
2021/03/25 09:44:46;;;;;;;24.03;13.60;;;12.30;99.90;;;;;;4939968;29;20697;-91
2021/03/25 09:47:29;;;;;;;19.43;13.20;;;12.10;99.90;;;;;;4957182;28;20168;-91
2021/03/25 09:50:53;;;;;;;20.17;12.90;;;11.90;99.90;;;;;;4945844;29;20195;-92
2021/03/25 09:54:02;;;;;;;17.10;12.93;;;11.90;99.90;;;;;;4868072;29;20301;-92
2021/03/25 09:56:39;;;;;;;20.70;13.93;;;11.90;99.90;;;;;;4872880;29;20196;-91
2021/03/25 10:02:47;;;;;;;18.47;13.27;;;12.30;99.90;;;;;;4963346;28;20186;-90
2021/03/25 19:22:05;;;;;;;;;;;;;;;;;;;;;
2021/03/25 19:24:41;;;;;;;20.00;11.23;;;14.10;92.60;;;;;;4977633;28;20655;-93
2021/03/25 19:27:55;;;;;;;;;;;;;;;;;;;;;
2021/03/25 19:30:48;;;;;;;14.13;10.70;;;13.70;93.10;;;;;;4994716;28;20554;-90
2021/03/25 19:40:29;;;;;;;14.63;10.93;;;13.60;93.20;;;;;;4988326;23;20242;-92
2021/03/25 19:46:34;;;;;;;18.53;11.27;;;13.70;93.70;;;;;;4916813;28;20281;-92
2021/03/25 19:49:01;;;;;;;19.00;12.33;;;13.60;93.50;;;;;;4956386;28;20178;-91
2021/03/25 19:51:28;;;;;;;19.00;11.87;;;13.50;93.70;;;;;;4950396;29;20260;-90
2021/03/25 19:53:58;;;;;;;20.17;11.77;;;13.50;94.00;;;;;;4955583;28;20187;-92
2021/03/25 19:56:39;;;;;;;;;;;;;;;;;;;;;
2021/03/25 19:59:09;;;;;;;18.40;11.90;;;13.30;94.30;;;;;;4985065;28;20311;-92
2021/03/25 20:01:38;;;;;;;23.33;13.37;;;13.30;94.30;;;;;;4965324;28;20185;-92
2021/03/25 20:04:04;;;;;;;23.50;13.53;;;13.30;94.60;;;;;;4962799;28;20242;-95
2021/03/25 20:06:38;;;;;;;18.57;13.10;;;13.20;94.80;;;;;;4963539;28;20279;-92
2021/03/25 20:09:17;;;;;;;23.67;13.63;;;13.10;95.00;;;;;;4964314;28;20190;-92
2021/03/25 20:11:46;;;;;;;19.70;13.33;;;13.10;94.90;;;;;;4961576;28;20209;-92
2021/03/25 20:14:14;;;;;;;23.10;13.93;;;13.10;95.00;;;;;;4962659;28;20186;-92
2021/03/25 20:16:52;;;;;;;23.90;14.10;;;13.10;95.00;;;;;;4943024;28;20190;-92
2021/03/25 20:19:22;;;;;;;22.13;14.23;;;13.20;95.00;;;;;;4943330;28;20190;-92
2021/03/25 20:21:48;;;;;;;19.53;12.83;;;13.10;94.90;;;;;;4958647;28;20182;-92
2021/03/25 20:24:49;;;;;;;19.67;12.93;;;13.10;94.90;;;;;;4958757;28;20218;-93
2021/03/25 20:27:16;;;;;;;21.17;13.27;;;13.10;95.00;;;;;;4960092;28;20229;-92
2021/03/25 20:30:09;;;;;;;18.83;13.30;;;13.10;95.00;;;;;;4964965;28;20191;-92
2021/03/25 20:32:45;;;;;;;20.53;12.90;;;13.10;95.00;;;;;;4879183;28;20193;-94
2021/03/25 20:35:24;;;;;;;21.43;13.43;;;13.00;95.10;;;;;;4967307;28;20281;-92
2021/03/25 20:38:02;;;;;;;24.33;14.43;;;12.90;95.20;;;;;;4966162;28;20190;-95
2021/03/25 20:40:34;;;;;;;25.23;13.63;;;13.00;95.00;;;;;;4975070;28;20187;-93
2021/03/25 20:43:05;;;;;;;22.40;13.43;;;13.00;94.70;;;;;;4974382;28;20270;-94
2021/03/25 20:45:52;;;;;;;20.93;13.10;;;12.90;95.00;;;;;;4968616;28;20588;-93
2021/03/25 20:48:42;;;;;;;20.10;13.17;;;12.90;94.90;;;;;;4965314;28;20186;-92
2021/03/25 20:51:16;;;;;;;20.37;12.87;;;12.70;95.00;;;;;;4954311;28;20313;-92
2021/03/25 20:53:46;;;;;;;21.77;13.20;;;12.60;95.30;;;;;;4960330;28;20181;-93
2021/03/25 20:56:17;;;;;;;18.63;13.87;;;12.60;95.50;;;;;;4961768;28;20233;-93
2021/03/25 21:00:16;;;;;;;20.50;13.50;;;12.60;95.50;;;;;;4963788;28;20181;-91
2021/03/25 21:05:40;;;;;;;24.30;13.57;;;12.70;95.20;;;;;;4979367;28;20190;-91
2021/03/25 21:08:22;;;;;;;22.17;12.77;;;12.40;95.40;;;;;;4966931;28;20198;-92
2021/03/25 21:11:11;;;;;;;27.97;13.80;;;12.30;95.60;;;;;;4963701;28;20181;-93
2021/03/25 21:13:50;;;;;;;17.87;12.80;;;12.30;95.60;;;;;;4954532;28;20187;-91
2021/03/25 21:19:41;;;;;;;;;;;;;;;;;;;;;
2021/03/25 21:22:13;;;;;;;24.23;12.37;;;12.40;95.20;;;;;;4980565;28;20173;-92
2021/03/25 21:24:39;;;;;;;19.60;12.80;;;12.40;95.20;;;;;;4962903;28;20229;-93
2021/03/25 21:27:08;;;;;;;21.83;13.20;;;12.40;95.20;;;;;;4964419;28;20206;-92
2021/03/25 21:29:42;;;;;;;18.97;13.47;;;12.30;95.50;;;;;;4968574;28;20543;-92
2021/03/25 21:32:12;;;;;;;22.17;14.40;;;12.20;95.90;;;;;;4964741;28;20189;-91
2021/03/25 21:34:57;;;;;;;25.17;14.77;;;12.20;96.00;;;;;;4964744;28;20192;-93
2021/03/25 21:37:36;;;;;;;27.13;15.90;;;12.20;96.20;;;;;;4963296;28;20565;-92
2021/03/25 21:40:28;;;;;;;26.60;16.13;;;12.30;96.10;;;;;;4961329;28;20189;-92
2021/03/25 21:42:56;;;;;;;19.10;15.00;;;12.20;96.40;;;;;;4960852;28;20221;-92
2021/03/25 21:45:43;;;;;;;26.20;16.00;;;12.30;96.60;;;;;;4961821;28;20229;-92
2021/03/25 21:48:17;;;;;;;23.23;15.83;;;12.20;96.80;;;;;;4959621;28;20190;-93
2021/03/25 21:50:43;;;;;;;25.27;16.30;;;12.10;96.80;;;;;;4959550;28;20209;-92
